Time;durP1;ratioP1;P1;durP2;ratioP2;P2;SDS_P1;SDS_P2;PMS_P1;PMS_P2;Temp;Humidity;BMP_temperature;BMP_pressure;BME280_temperature;BME280_humidity;BME280_pressure;Samples;Min_cycle;Max_cycle;Signal;HPM_P1;HPM_P2
2022/09/27 00:01:28;;;;;;;2.03;0.60;;;;;;;;;;5139616;27;20206;-64
2022/09/27 00:03:59;;;;;;;0.80;0.70;;;;;;;;;;5139085;27;20198;-66
2022/09/27 00:06:28;;;;;;;1.10;0.85;;;;;;;;;;5139996;27;20241;-64
2022/09/27 00:08:56;;;;;;;1.00;0.80;;;;;;;;;;5139471;27;20202;-65
2022/09/27 00:11:26;;;;;;;0.80;0.73;;;;;;;;;;5139186;27;20339;-64
2022/09/27 00:13:54;;;;;;;0.60;0.60;;;;;;;;;;5140156;27;20292;-66
2022/09/27 00:16:22;;;;;;;0.82;0.68;;;;;;;;;;5139795;27;20213;-65
2022/09/27 00:18:50;;;;;;;0.70;0.70;;;;;;;;;;5139416;27;20296;-65
2022/09/27 00:21:19;;;;;;;1.20;0.80;;;;;;;;;;5139242;27;20257;-65
2022/09/27 00:23:46;;;;;;;0.73;0.73;;;;;;;;;;5139522;27;20655;-65
2022/09/27 00:26:14;;;;;;;0.52;0.52;;;;;;;;;;5139675;27;20213;-66
2022/09/27 00:28:42;;;;;;;0.52;0.52;;;;;;;;;;5138748;27;20198;-66
2022/09/27 00:31:19;;;;;;;0.75;0.70;;;;;;;;;;5138446;27;20287;-67
2022/09/27 00:33:47;;;;;;;0.70;0.70;;;;;;;;;;5139399;27;20202;-65
2022/09/27 00:36:15;;;;;;;0.70;0.63;;;;;;;;;;5139448;27;20230;-65
2022/09/27 00:38:44;;;;;;;0.82;0.77;;;;;;;;;;5138835;27;20232;-65
2022/09/27 00:41:15;;;;;;;1.38;0.82;;;;;;;;;;5138967;27;20198;-65
2022/09/27 00:43:48;;;;;;;0.60;0.60;;;;;;;;;;5138951;27;20209;-65
2022/09/27 00:46:19;;;;;;;0.60;0.60;;;;;;;;;;5138851;27;20591;-65
2022/09/27 00:48:46;;;;;;;0.80;0.80;;;;;;;;;;5139094;27;20206;-65
2022/09/27 00:51:14;;;;;;;0.98;0.75;;;;;;;;;;5138745;27;20226;-66
2022/09/27 00:53:45;;;;;;;0.75;0.75;;;;;;;;;;5139209;27;20543;-65
2022/09/27 00:56:18;;;;;;;0.57;0.57;;;;;;;;;;5138033;27;20206;-65
2022/09/27 00:58:47;;;;;;;0.80;0.80;;;;;;;;;;5138627;27;20206;-65
2022/09/27 01:01:15;;;;;;;0.68;0.63;;;;;;;;;;5138809;27;20199;-65
2022/09/27 01:03:46;;;;;;;0.70;0.70;;;;;;;;;;5138537;27;20234;-64
2022/09/27 01:06:14;;;;;;;0.80;0.70;;;;;;;;;;5138663;27;20590;-64
2022/09/27 01:08:42;;;;;;;0.70;0.70;;;;;;;;;;5138420;27;20267;-63
2022/09/27 01:11:19;;;;;;;0.70;0.70;;;;;;;;;;5138319;27;20218;-64
2022/09/27 01:13:55;;;;;;;1.23;0.80;;;;;;;;;;5138270;27;20202;-64
2022/09/27 01:16:25;;;;;;;1.20;0.77;;;;;;;;;;5138358;27;20214;-64
2022/09/27 01:19:01;;;;;;;0.82;0.80;;;;;;;;;;5138565;27;20202;-64
2022/09/27 01:21:46;;;;;;;1.88;0.80;;;;;;;;;;5133592;27;20538;-65
2022/09/27 01:24:26;;;;;;;1.25;0.70;;;;;;;;;;5136575;27;20202;-64
2022/09/27 01:27:08;;;;;;;1.67;0.70;;;;;;;;;;5138019;27;20531;-65
2022/09/27 01:29:39;;;;;;;0.93;0.80;;;;;;;;;;5122863;27;20214;-65
2022/09/27 01:32:12;;;;;;;1.80;0.65;;;;;;;;;;5121523;28;20225;-65
2022/09/27 01:34:44;;;;;;;0.98;0.70;;;;;;;;;;5138008;28;20210;-65
2022/09/27 01:37:17;;;;;;;1.92;0.68;;;;;;;;;;5138449;27;20279;-65
2022/09/27 01:39:49;;;;;;;1.33;0.90;;;;;;;;;;5138478;28;20209;-65
2022/09/27 01:42:20;;;;;;;0.70;0.70;;;;;;;;;;5138527;27;20226;-65
2022/09/27 01:44:50;;;;;;;0.73;0.70;;;;;;;;;;5138204;28;20209;-66
2022/09/27 01:47:20;;;;;;;1.33;0.70;;;;;;;;;;5138275;28;20202;-66
2022/09/27 01:49:50;;;;;;;1.15;0.70;;;;;;;;;;5137267;28;20206;-66
2022/09/27 01:52:21;;;;;;;1.10;0.70;;;;;;;;;;5134839;27;20222;-65
2022/09/27 01:54:51;;;;;;;1.67;0.80;;;;;;;;;;5138304;28;20202;-65
2022/09/27 01:57:21;;;;;;;1.20;0.60;;;;;;;;;;5137569;28;20294;-65
2022/09/27 01:59:53;;;;;;;1.67;0.70;;;;;;;;;;5117204;28;20199;-66
2022/09/27 02:02:24;;;;;;;2.28;0.63;;;;;;;;;;5117437;28;20199;-65
2022/09/27 02:04:52;;;;;;;0.63;0.63;;;;;;;;;;5128507;27;20296;-65
2022/09/27 02:07:24;;;;;;;0.77;0.65;;;;;;;;;;5137702;27;20575;-65
2022/09/27 02:09:54;;;;;;;1.00;0.70;;;;;;;;;;5137901;28;20202;-64
2022/09/27 02:12:23;;;;;;;0.70;0.68;;;;;;;;;;5137455;28;20614;-65
2022/09/27 02:14:54;;;;;;;1.20;0.70;;;;;;;;;;5138078;28;20202;-64
2022/09/27 02:17:28;;;;;;;0.85;0.65;;;;;;;;;;5136970;28;20203;-64
2022/09/27 02:19:59;;;;;;;1.40;0.80;;;;;;;;;;5137736;27;20626;-64
2022/09/27 02:22:31;;;;;;;1.25;0.60;;;;;;;;;;5139083;27;20225;-64
2022/09/27 02:25:01;;;;;;;0.70;0.70;;;;;;;;;;5120306;28;20500;-66
2022/09/27 02:27:32;;;;;;;0.73;0.60;;;;;;;;;;5120712;28;20267;-65
2022/09/27 02:30:01;;;;;;;0.80;0.75;;;;;;;;;;5100644;28;20207;-65
2022/09/27 02:32:31;;;;;;;0.65;0.65;;;;;;;;;;5109183;28;20234;-65
2022/09/27 02:34:59;;;;;;;0.70;0.68;;;;;;;;;;5120420;28;20202;-65
2022/09/27 02:37:27;;;;;;;0.80;0.70;;;;;;;;;;5120955;28;20583;-65
2022/09/27 02:39:56;;;;;;;1.40;0.70;;;;;;;;;;5121139;28;20203;-64
2022/09/27 02:42:23;;;;;;;0.70;0.70;;;;;;;;;;5121004;28;20218;-65
2022/09/27 02:44:51;;;;;;;0.68;0.60;;;;;;;;;;5131093;27;20199;-65
2022/09/27 02:47:25;;;;;;;0.50;0.50;;;;;;;;;;5140973;27;20202;-64
2022/09/27 02:50:01;;;;;;;0.93;0.70;;;;;;;;;;5139303;27;20237;-65
2022/09/27 02:52:33;;;;;;;0.50;0.47;;;;;;;;;;5120721;28;20231;-65
2022/09/27 02:55:08;;;;;;;0.70;0.60;;;;;;;;;;5120622;28;20203;-65
2022/09/27 02:57:41;;;;;;;0.80;0.60;;;;;;;;;;5120399;28;20210;-65
2022/09/27 03:00:10;;;;;;;1.45;0.88;;;;;;;;;;5120481;28;20613;-64
2022/09/27 03:02:47;;;;;;;0.70;0.50;;;;;;;;;;5120661;28;20256;-64
2022/09/27 03:05:18;;;;;;;0.50;0.50;;;;;;;;;;5119897;28;20400;-64
2022/09/27 03:07:46;;;;;;;0.50;0.50;;;;;;;;;;5119404;28;20207;-65
2022/09/27 03:10:18;;;;;;;0.70;0.52;;;;;;;;;;5118459;28;20225;-65
2022/09/27 03:12:46;;;;;;;0.82;0.70;;;;;;;;;;5099630;28;20312;-65
2022/09/27 03:15:14;;;;;;;2.00;0.70;;;;;;;;;;5118700;28;20576;-65
2022/09/27 03:17:42;;;;;;;1.35;0.63;;;;;;;;;;5120007;28;20202;-65
2022/09/27 03:20:10;;;;;;;0.63;0.57;;;;;;;;;;5120066;28;20262;-65
2022/09/27 03:22:39;;;;;;;1.05;0.68;;;;;;;;;;5120309;28;20195;-65
2022/09/27 03:25:07;;;;;;;0.80;0.50;;;;;;;;;;5119943;28;20263;-65
2022/09/27 03:27:35;;;;;;;1.90;0.60;;;;;;;;;;5119787;28;20217;-64
2022/09/27 03:30:03;;;;;;;2.17;0.60;;;;;;;;;;5118438;28;20257;-64
2022/09/27 03:32:31;;;;;;;3.83;0.80;;;;;;;;;;5119829;28;20503;-63
2022/09/27 03:34:59;;;;;;;1.13;0.60;;;;;;;;;;5119759;28;20215;-64
2022/09/27 03:37:28;;;;;;;0.95;0.60;;;;;;;;;;5118832;28;20213;-64
2022/09/27 03:39:57;;;;;;;4.75;0.70;;;;;;;;;;5092775;28;20215;-64
2022/09/27 03:42:25;;;;;;;1.50;0.63;;;;;;;;;;5098843;28;20204;-64
2022/09/27 03:44:53;;;;;;;1.98;0.70;;;;;;;;;;5098969;28;20239;-63
2022/09/27 03:47:21;;;;;;;2.70;0.60;;;;;;;;;;5098927;28;20286;-64
2022/09/27 03:49:49;;;;;;;1.52;0.77;;;;;;;;;;5098733;28;20204;-63
2022/09/27 03:52:17;;;;;;;0.40;0.40;;;;;;;;;;5098543;28;20266;-63
2022/09/27 03:54:46;;;;;;;1.85;0.65;;;;;;;;;;5098589;28;20582;-63
2022/09/27 03:57:16;;;;;;;1.27;0.50;;;;;;;;;;5098210;28;20203;-63
2022/09/27 03:59:44;;;;;;;0.50;0.50;;;;;;;;;;5098184;28;20212;-64
2022/09/27 04:02:11;;;;;;;1.17;0.60;;;;;;;;;;5098062;28;20231;-64
2022/09/27 04:04:40;;;;;;;0.60;0.60;;;;;;;;;;5110723;27;20225;-65
2022/09/27 04:07:09;;;;;;;1.17;0.50;;;;;;;;;;5138367;27;20206;-65
2022/09/27 04:09:37;;;;;;;1.70;0.50;;;;;;;;;;5139434;27;20210;-64
2022/09/27 04:12:05;;;;;;;2.83;0.65;;;;;;;;;;5120406;27;20226;-66
2022/09/27 04:14:34;;;;;;;0.40;0.40;;;;;;;;;;5118838;28;20206;-64
2022/09/27 04:17:02;;;;;;;1.85;0.70;;;;;;;;;;5130345;27;20206;-66
2022/09/27 04:19:30;;;;;;;0.65;0.63;;;;;;;;;;5138403;27;20203;-66
2022/09/27 04:21:58;;;;;;;1.05;0.45;;;;;;;;;;5153557;27;20696;-66
2022/09/27 04:24:26;;;;;;;0.63;0.40;;;;;;;;;;5159588;27;20250;-67
2022/09/27 04:26:53;;;;;;;0.82;0.50;;;;;;;;;;5159952;27;20208;-64
2022/09/27 04:29:21;;;;;;;0.82;0.50;;;;;;;;;;5158976;27;20262;-65
2022/09/27 04:31:51;;;;;;;0.55;0.45;;;;;;;;;;5155913;27;20341;-65
2022/09/27 04:36:25;;;;;;;1.17;0.68;;;;;;;;;;5137857;27;20198;-65
2022/09/27 04:37:06;;;;;;;1.30;0.60;;;;;;;;;;5137318;27;20206;-66
2022/09/27 04:39:35;;;;;;;1.35;0.50;;;;;;;;;;5137497;27;20206;-65
2022/09/27 04:42:03;;;;;;;1.83;0.40;;;;;;;;;;5136981;27;20716;-65
2022/09/27 04:44:31;;;;;;;0.70;0.60;;;;;;;;;;5137388;27;20212;-65
2022/09/27 04:47:01;;;;;;;0.50;0.50;;;;;;;;;;5137337;27;20198;-65
2022/09/27 04:49:28;;;;;;;1.77;0.50;;;;;;;;;;5136704;27;20289;-65
2022/09/27 04:51:56;;;;;;;1.55;0.68;;;;;;;;;;5136669;27;20583;-65
2022/09/27 04:54:24;;;;;;;0.68;0.55;;;;;;;;;;5137120;27;20694;-65
2022/09/27 04:56:54;;;;;;;1.00;0.40;;;;;;;;;;5137124;27;20297;-65
2022/09/27 04:59:22;;;;;;;1.35;0.60;;;;;;;;;;5136551;27;20198;-65
2022/09/27 05:01:50;;;;;;;1.45;0.70;;;;;;;;;;5136531;27;20210;-66
2022/09/27 05:04:20;;;;;;;1.10;0.57;;;;;;;;;;5136490;27;20251;-65
2022/09/27 05:06:48;;;;;;;1.95;0.57;;;;;;;;;;5136964;27;20202;-65
2022/09/27 05:09:16;;;;;;;2.55;0.50;;;;;;;;;;5136330;27;20198;-66
2022/09/27 05:11:44;;;;;;;0.40;0.40;;;;;;;;;;5135206;27;20206;-66
2022/09/27 05:14:12;;;;;;;1.33;0.70;;;;;;;;;;5134926;27;20210;-66
2022/09/27 05:16:41;;;;;;;0.57;0.45;;;;;;;;;;5135297;27;20217;-66
2022/09/27 05:19:08;;;;;;;1.13;0.50;;;;;;;;;;5135362;27;20474;-65
2022/09/27 05:21:38;;;;;;;1.33;0.40;;;;;;;;;;5135842;27;20242;-65
2022/09/27 05:24:06;;;;;;;0.82;0.50;;;;;;;;;;5134905;27;20198;-65
2022/09/27 05:26:33;;;;;;;1.08;0.50;;;;;;;;;;5134337;27;20201;-64
2022/09/27 05:29:01;;;;;;;0.50;0.40;;;;;;;;;;5134413;27;20217;-64
2022/09/27 05:31:30;;;;;;;0.77;0.40;;;;;;;;;;5135395;27;20259;-65
2022/09/27 05:33:57;;;;;;;0.80;0.50;;;;;;;;;;5134783;28;20733;-66
2022/09/27 05:36:25;;;;;;;1.13;0.60;;;;;;;;;;5134685;28;20205;-64
2022/09/27 05:38:55;;;;;;;0.55;0.43;;;;;;;;;;5135366;28;20202;-65
2022/09/27 05:41:24;;;;;;;0.90;0.50;;;;;;;;;;5135200;28;20209;-64
2022/09/27 05:43:51;;;;;;;1.92;0.50;;;;;;;;;;5135370;28;20201;-64
2022/09/27 05:46:19;;;;;;;0.95;0.40;;;;;;;;;;5135129;28;20202;-64
2022/09/27 05:48:47;;;;;;;2.38;0.63;;;;;;;;;;5135212;28;20247;-64
2022/09/27 05:51:15;;;;;;;0.95;0.57;;;;;;;;;;5133513;28;20839;-64
2022/09/27 05:53:43;;;;;;;2.28;0.40;;;;;;;;;;5122954;27;20225;-65
2022/09/27 05:56:12;;;;;;;1.85;0.47;;;;;;;;;;5138657;27;20202;-64
2022/09/27 05:58:41;;;;;;;1.05;0.50;;;;;;;;;;5130873;27;20231;-64
2022/09/27 06:01:09;;;;;;;1.23;0.52;;;;;;;;;;5134459;27;20191;-64
2022/09/27 06:03:39;;;;;;;2.00;0.40;;;;;;;;;;5121617;27;20600;-64
2022/09/27 06:06:09;;;;;;;0.73;0.45;;;;;;;;;;5138263;27;20247;-64
2022/09/27 06:08:37;;;;;;;0.77;0.50;;;;;;;;;;5139372;27;20275;-64
2022/09/27 06:11:07;;;;;;;0.85;0.50;;;;;;;;;;5139728;27;20202;-65
2022/09/27 06:13:37;;;;;;;3.03;0.60;;;;;;;;;;5139566;27;20237;-64
2022/09/27 06:16:04;;;;;;;0.50;0.32;;;;;;;;;;5139858;27;20202;-64
2022/09/27 06:18:34;;;;;;;1.25;0.50;;;;;;;;;;5139043;27;20194;-64
2022/09/27 06:21:03;;;;;;;0.80;0.40;;;;;;;;;;5139032;27;20234;-65
2022/09/27 06:23:32;;;;;;;0.70;0.60;;;;;;;;;;5139894;27;20628;-65
2022/09/27 06:26:02;;;;;;;1.67;0.40;;;;;;;;;;5138894;27;20202;-66
2022/09/27 06:28:30;;;;;;;3.33;0.50;;;;;;;;;;5138709;27;20206;-66
2022/09/27 06:31:00;;;;;;;0.68;0.50;;;;;;;;;;5139013;27;20224;-65
2022/09/27 06:33:28;;;;;;;1.42;0.40;;;;;;;;;;5138551;27;20269;-65
2022/09/27 06:35:56;;;;;;;0.98;0.60;;;;;;;;;;5105079;27;20268;-64
2022/09/27 06:38:25;;;;;;;1.55;0.50;;;;;;;;;;5133972;27;20198;-64
2022/09/27 06:40:53;;;;;;;2.30;0.70;;;;;;;;;;5135471;27;20582;-63
2022/09/27 06:43:21;;;;;;;2.85;0.50;;;;;;;;;;5118082;28;20202;-65
2022/09/27 06:45:49;;;;;;;4.15;0.57;;;;;;;;;;5127503;27;20791;-64
2022/09/27 06:48:20;;;;;;;1.08;0.50;;;;;;;;;;5130844;27;20285;-63
2022/09/27 06:50:49;;;;;;;1.30;0.40;;;;;;;;;;5138334;27;20195;-64
2022/09/27 06:53:17;;;;;;;1.15;0.50;;;;;;;;;;5137694;27;20268;-65
2022/09/27 06:55:45;;;;;;;0.75;0.40;;;;;;;;;;5137861;27;20202;-66
2022/09/27 07:00:59;;;;;;;1.58;0.47;;;;;;;;;;5137842;27;20201;-65
2022/09/27 07:03:30;;;;;;;1.20;0.60;;;;;;;;;;5137009;27;20285;-65
2022/09/27 07:05:58;;;;;;;0.65;0.30;;;;;;;;;;5137068;27;20391;-65
2022/09/27 07:08:27;;;;;;;1.13;0.40;;;;;;;;;;5138272;27;20202;-65
2022/09/27 07:10:55;;;;;;;3.50;0.60;;;;;;;;;;5138279;27;20229;-65
2022/09/27 07:13:25;;;;;;;1.65;0.40;;;;;;;;;;5134753;27;20249;-66
2022/09/27 07:15:53;;;;;;;1.00;0.40;;;;;;;;;;5136825;27;20210;-65
2022/09/27 07:18:21;;;;;;;1.13;0.47;;;;;;;;;;5138354;27;20199;-65
2022/09/27 07:20:50;;;;;;;1.77;0.50;;;;;;;;;;5137972;27;20226;-65
2022/09/27 07:23:18;;;;;;;1.58;0.40;;;;;;;;;;5138307;27;20275;-65
2022/09/27 07:25:46;;;;;;;0.52;0.32;;;;;;;;;;5138073;27;20210;-65
2022/09/27 07:28:15;;;;;;;0.63;0.38;;;;;;;;;;5138419;27;20267;-65
2022/09/27 07:30:42;;;;;;;1.73;0.40;;;;;;;;;;5138243;27;20213;-66
2022/09/27 07:33:11;;;;;;;0.93;0.40;;;;;;;;;;5137960;27;20229;-64
2022/09/27 07:35:40;;;;;;;0.40;0.30;;;;;;;;;;5137332;27;20766;-65
2022/09/27 07:38:12;;;;;;;2.72;0.70;;;;;;;;;;5137879;27;20201;-64
2022/09/27 07:40:40;;;;;;;1.40;0.50;;;;;;;;;;5136129;27;20289;-65
2022/09/27 07:43:08;;;;;;;0.73;0.50;;;;;;;;;;5137947;27;20244;-65
2022/09/27 07:45:36;;;;;;;2.53;0.40;;;;;;;;;;5136918;27;20206;-65
2022/09/27 07:48:05;;;;;;;0.68;0.32;;;;;;;;;;5137914;27;20198;-65
2022/09/27 07:50:34;;;;;;;0.40;0.40;;;;;;;;;;5137278;27;20198;-65
2022/09/27 07:53:03;;;;;;;0.20;0.20;;;;;;;;;;5137499;27;20221;-65
2022/09/27 07:55:32;;;;;;;1.30;0.50;;;;;;;;;;5136605;27;20194;-66
2022/09/27 07:58:03;;;;;;;0.32;0.30;;;;;;;;;;5137203;27;20297;-66
2022/09/27 08:00:31;;;;;;;0.98;0.30;;;;;;;;;;5137375;27;20290;-65
2022/09/27 08:02:59;;;;;;;0.45;0.30;;;;;;;;;;5137587;27;20275;-66
2022/09/27 08:05:27;;;;;;;1.13;0.38;;;;;;;;;;5136625;27;20245;-65
2022/09/27 08:07:56;;;;;;;0.50;0.20;;;;;;;;;;5134833;27;20598;-65
2022/09/27 08:10:26;;;;;;;1.38;0.40;;;;;;;;;;5135793;27;20202;-66
2022/09/27 08:12:55;;;;;;;0.70;0.30;;;;;;;;;;5135609;27;20559;-65
2022/09/27 08:15:23;;;;;;;0.30;0.30;;;;;;;;;;5124366;27;20613;-65
2022/09/27 08:17:51;;;;;;;0.63;0.28;;;;;;;;;;5121617;27;20209;-64
2022/09/27 08:20:18;;;;;;;0.40;0.30;;;;;;;;;;5136557;27;20642;-65
2022/09/27 08:22:46;;;;;;;0.38;0.30;;;;;;;;;;5136191;27;20666;-64
2022/09/27 08:25:14;;;;;;;0.85;0.40;;;;;;;;;;5136633;27;20266;-65
2022/09/27 08:27:43;;;;;;;0.93;0.40;;;;;;;;;;5136157;27;20224;-66
2022/09/27 08:30:12;;;;;;;0.30;0.30;;;;;;;;;;5133844;27;20202;-65
2022/09/27 08:32:40;;;;;;;0.68;0.30;;;;;;;;;;5115288;28;20222;-65
2022/09/27 08:35:09;;;;;;;0.55;0.38;;;;;;;;;;5130765;27;20233;-66
2022/09/27 08:37:36;;;;;;;0.63;0.22;;;;;;;;;;5135594;27;20217;-65
2022/09/27 08:40:05;;;;;;;0.88;0.30;;;;;;;;;;5136482;27;20202;-65
2022/09/27 08:42:38;;;;;;;0.73;0.30;;;;;;;;;;5136738;27;20675;-65
2022/09/27 08:45:11;;;;;;;0.80;0.30;;;;;;;;;;5131857;27;20203;-65
2022/09/27 08:47:43;;;;;;;0.88;0.50;;;;;;;;;;5132249;27;20237;-65
2022/09/27 08:50:21;;;;;;;0.65;0.32;;;;;;;;;;5122626;27;20195;-65
2022/09/27 08:52:52;;;;;;;1.30;0.30;;;;;;;;;;5135333;27;20279;-65
2022/09/27 08:55:23;;;;;;;2.35;0.40;;;;;;;;;;5126246;27;20221;-65
2022/09/27 08:57:52;;;;;;;1.02;0.30;;;;;;;;;;5128249;27;20191;-65
2022/09/27 09:00:20;;;;;;;1.25;0.50;;;;;;;;;;5119959;27;20198;-64
2022/09/27 09:02:50;;;;;;;1.05;0.30;;;;;;;;;;5133371;27;20237;-65
2022/09/27 09:05:20;;;;;;;1.05;0.55;;;;;;;;;;5135458;27;20255;-65
2022/09/27 09:07:55;;;;;;;1.58;0.32;;;;;;;;;;5117290;27;20218;-65
2022/09/27 09:13:21;;;;;;;1.10;0.30;;;;;;;;;;5114904;28;20189;-65
2022/09/27 09:15:54;;;;;;;0.65;0.30;;;;;;;;;;5114491;28;20210;-65
2022/09/27 09:18:29;;;;;;;1.48;0.47;;;;;;;;;;5115788;28;20480;-65
2022/09/27 09:21:00;;;;;;;2.00;0.38;;;;;;;;;;5126767;27;20838;-65
2022/09/27 09:23:56;;;;;;;1.40;0.32;;;;;;;;;;5116465;28;20228;-65
2022/09/27 09:26:29;;;;;;;1.00;0.40;;;;;;;;;;5098359;27;20252;-65
2022/09/27 09:29:05;;;;;;;0.85;0.35;;;;;;;;;;5128178;27;20229;-64
2022/09/27 09:31:37;;;;;;;3.15;0.30;;;;;;;;;;5105426;28;20203;-64
2022/09/27 09:34:10;;;;;;;1.10;0.30;;;;;;;;;;5114656;28;20226;-65
2022/09/27 09:36:42;;;;;;;1.35;0.30;;;;;;;;;;5115327;28;20538;-65
2022/09/27 09:39:13;;;;;;;1.45;0.38;;;;;;;;;;5114024;28;20203;-65
2022/09/27 09:41:42;;;;;;;0.30;0.30;;;;;;;;;;5114403;28;20199;-65
2022/09/27 09:44:17;;;;;;;1.75;0.30;;;;;;;;;;5114711;28;20206;-65
2022/09/27 09:46:46;;;;;;;1.23;0.30;;;;;;;;;;5114439;28;20540;-65
2022/09/27 09:49:19;;;;;;;0.30;0.30;;;;;;;;;;5114337;28;20290;-65
2022/09/27 09:51:49;;;;;;;0.40;0.30;;;;;;;;;;5114711;28;20291;-65
2022/09/27 09:54:21;;;;;;;1.08;0.35;;;;;;;;;;5120525;28;20211;-65
2022/09/27 09:56:50;;;;;;;2.15;0.40;;;;;;;;;;5133244;27;20210;-65
2022/09/27 09:59:20;;;;;;;0.68;0.30;;;;;;;;;;5115157;28;20207;-65
2022/09/27 10:01:48;;;;;;;1.08;0.20;;;;;;;;;;5113661;28;20219;-65
2022/09/27 10:04:20;;;;;;;0.38;0.32;;;;;;;;;;5113623;28;20476;-65
2022/09/27 10:06:48;;;;;;;0.40;0.25;;;;;;;;;;5114897;28;20599;-65
2022/09/27 10:09:17;;;;;;;1.02;0.35;;;;;;;;;;5114262;28;20214;-65
2022/09/27 10:11:47;;;;;;;1.83;0.32;;;;;;;;;;5113936;28;20280;-65
2022/09/27 10:14:15;;;;;;;0.40;0.40;;;;;;;;;;5114094;28;20323;-65
2022/09/27 10:16:46;;;;;;;0.68;0.30;;;;;;;;;;5113854;28;20211;-65
2022/09/27 10:19:15;;;;;;;1.63;0.40;;;;;;;;;;5114391;28;20630;-65
2022/09/27 10:21:48;;;;;;;1.42;0.50;;;;;;;;;;5128635;28;20313;-65
2022/09/27 10:24:16;;;;;;;1.20;0.70;;;;;;;;;;5135556;28;20198;-65
2022/09/27 10:26:45;;;;;;;1.00;0.50;;;;;;;;;;5134239;28;20202;-65
2022/09/27 10:29:31;;;;;;;1.48;0.50;;;;;;;;;;5134629;28;20198;-65
2022/09/27 10:32:00;;;;;;;1.10;0.50;;;;;;;;;;5135065;28;20217;-65
2022/09/27 10:34:29;;;;;;;0.77;0.50;;;;;;;;;;5134338;28;20331;-65
2022/09/27 10:37:16;;;;;;;1.38;0.60;;;;;;;;;;5134868;28;20259;-65
2022/09/27 10:39:45;;;;;;;0.50;0.50;;;;;;;;;;5134454;27;20249;-65
2022/09/27 10:42:23;;;;;;;0.88;0.70;;;;;;;;;;5136607;27;20198;-65
2022/09/27 10:44:50;;;;;;;0.75;0.60;;;;;;;;;;5137191;27;20190;-65
2022/09/27 10:47:21;;;;;;;1.20;0.60;;;;;;;;;;5137968;27;20206;-64
2022/09/27 10:49:51;;;;;;;2.17;0.55;;;;;;;;;;5135592;27;20198;-65
2022/09/27 10:52:21;;;;;;;1.27;0.90;;;;;;;;;;5138175;27;20202;-65
2022/09/27 10:54:56;;;;;;;1.60;0.60;;;;;;;;;;5132326;27;20225;-65
2022/09/27 10:57:25;;;;;;;2.35;0.80;;;;;;;;;;5136988;27;20547;-65
2022/09/27 10:59:54;;;;;;;1.38;0.80;;;;;;;;;;5137588;27;20210;-65
2022/09/27 11:02:22;;;;;;;1.48;0.70;;;;;;;;;;5137148;27;20250;-65
2022/09/27 11:05:03;;;;;;;0.80;0.60;;;;;;;;;;5137445;27;20572;-64
2022/09/27 11:07:33;;;;;;;1.23;0.70;;;;;;;;;;5137886;27;20209;-65
2022/09/27 11:10:01;;;;;;;0.88;0.60;;;;;;;;;;5137710;27;20294;-65
2022/09/27 11:12:30;;;;;;;0.70;0.60;;;;;;;;;;5137799;27;20200;-65
2022/09/27 11:15:00;;;;;;;0.80;0.70;;;;;;;;;;5137798;27;20232;-65
2022/09/27 11:17:30;;;;;;;1.00;0.90;;;;;;;;;;5137985;27;20198;-65
2022/09/27 11:20:12;;;;;;;0.93;0.60;;;;;;;;;;5137092;27;20321;-65
2022/09/27 11:22:57;;;;;;;1.10;0.63;;;;;;;;;;5137676;27;20237;-65
2022/09/27 11:25:32;;;;;;;1.40;0.70;;;;;;;;;;5137691;27;20226;-65
2022/09/27 11:28:04;;;;;;;1.30;0.60;;;;;;;;;;5136991;27;20284;-64
2022/09/27 11:30:37;;;;;;;0.82;0.70;;;;;;;;;;5136384;27;20202;-65
2022/09/27 11:33:13;;;;;;;0.60;0.60;;;;;;;;;;5136492;27;20199;-65
2022/09/27 11:35:47;;;;;;;1.35;0.75;;;;;;;;;;5136888;27;20249;-65
2022/09/27 11:38:18;;;;;;;0.75;0.70;;;;;;;;;;5137353;27;20202;-65
2022/09/27 11:41:00;;;;;;;1.15;0.75;;;;;;;;;;5136635;27;20202;-65
2022/09/27 11:43:35;;;;;;;0.70;0.57;;;;;;;;;;5133484;27;20312;-65
2022/09/27 11:46:08;;;;;;;0.60;0.52;;;;;;;;;;5136116;27;20221;-65
2022/09/27 11:48:47;;;;;;;0.80;0.73;;;;;;;;;;5136537;27;20198;-66
2022/09/27 11:51:21;;;;;;;1.15;0.65;;;;;;;;;;5135454;27;20555;-66
2022/09/27 11:53:55;;;;;;;0.75;0.65;;;;;;;;;;5136745;27;20204;-64
2022/09/27 11:56:28;;;;;;;0.60;0.55;;;;;;;;;;5135278;27;20293;-64
2022/09/27 11:59:03;;;;;;;1.13;0.70;;;;;;;;;;5117936;27;20584;-64
2022/09/27 12:01:34;;;;;;;1.02;0.70;;;;;;;;;;5116001;28;20242;-64
2022/09/27 12:04:19;;;;;;;0.68;0.60;;;;;;;;;;5116640;28;20195;-64
2022/09/27 12:06:51;;;;;;;0.93;0.60;;;;;;;;;;5108369;28;20203;-64
2022/09/27 12:09:20;;;;;;;0.82;0.60;;;;;;;;;;5127564;27;20565;-65
2022/09/27 12:11:53;;;;;;;0.95;0.60;;;;;;;;;;5135816;27;20211;-64
2022/09/27 12:14:23;;;;;;;0.85;0.55;;;;;;;;;;5135549;27;20504;-64
2022/09/27 12:16:52;;;;;;;0.63;0.52;;;;;;;;;;5136255;27;20590;-64
2022/09/27 12:19:23;;;;;;;1.02;0.60;;;;;;;;;;5135375;27;20214;-64
2022/09/27 12:21:51;;;;;;;0.98;0.75;;;;;;;;;;5135835;27;20633;-64
2022/09/27 12:24:21;;;;;;;0.65;0.50;;;;;;;;;;5136221;27;20492;-65
2022/09/27 12:26:52;;;;;;;0.77;0.57;;;;;;;;;;5136161;27;20202;-64
2022/09/27 12:29:22;;;;;;;0.55;0.50;;;;;;;;;;5135559;27;20212;-65
2022/09/27 12:31:55;;;;;;;0.70;0.60;;;;;;;;;;5134444;27;20197;-64
2022/09/27 12:34:25;;;;;;;0.85;0.80;;;;;;;;;;5135728;27;20560;-64
2022/09/27 12:36:56;;;;;;;1.13;0.70;;;;;;;;;;5134549;27;20199;-65
2022/09/27 12:39:26;;;;;;;0.60;0.60;;;;;;;;;;5135202;27;20237;-65
2022/09/27 12:42:00;;;;;;;1.30;0.70;;;;;;;;;;5135635;27;20220;-64
2022/09/27 12:44:29;;;;;;;1.33;0.63;;;;;;;;;;5134916;27;20202;-64
2022/09/27 12:47:05;;;;;;;0.65;0.60;;;;;;;;;;5134613;27;20297;-64
2022/09/27 12:49:41;;;;;;;0.70;0.50;;;;;;;;;;5134845;27;20200;-64
2022/09/27 12:52:11;;;;;;;0.60;0.60;;;;;;;;;;5134905;27;20202;-64
2022/09/27 12:54:55;;;;;;;0.88;0.70;;;;;;;;;;5129998;27;20697;-64
2022/09/27 12:57:30;;;;;;;0.80;0.40;;;;;;;;;;5134642;27;20194;-64
2022/09/27 13:00:05;;;;;;;0.65;0.50;;;;;;;;;;5134636;27;20194;-64
2022/09/27 13:02:47;;;;;;;0.70;0.50;;;;;;;;;;5134738;27;20585;-65
2022/09/27 13:05:26;;;;;;;0.60;0.50;;;;;;;;;;5133575;27;20220;-64
2022/09/27 13:07:56;;;;;;;1.05;0.60;;;;;;;;;;5134100;27;20209;-65
2022/09/27 13:10:32;;;;;;;0.75;0.50;;;;;;;;;;5135014;27;20487;-65
2022/09/27 13:13:03;;;;;;;0.60;0.50;;;;;;;;;;5134250;27;20669;-65
2022/09/27 13:15:33;;;;;;;0.90;0.60;;;;;;;;;;5134830;27;20271;-65
2022/09/27 13:18:02;;;;;;;0.80;0.60;;;;;;;;;;5134290;27;20237;-65
2022/09/27 13:20:48;;;;;;;0.73;0.60;;;;;;;;;;5133170;27;20524;-65
2022/09/27 13:23:34;;;;;;;0.50;0.50;;;;;;;;;;5133528;27;20200;-65
2022/09/27 13:26:04;;;;;;;0.73;0.50;;;;;;;;;;5134189;27;20190;-65
2022/09/27 13:28:36;;;;;;;0.73;0.55;;;;;;;;;;5133922;27;20283;-64
2022/09/27 13:31:05;;;;;;;0.55;0.50;;;;;;;;;;5132428;27;20277;-64
2022/09/27 13:33:46;;;;;;;0.50;0.40;;;;;;;;;;5134566;27;20596;-65
2022/09/27 13:36:30;;;;;;;0.95;0.55;;;;;;;;;;5133795;27;20640;-65
2022/09/27 13:39:20;;;;;;;0.40;0.32;;;;;;;;;;5133533;27;20586;-64
2022/09/27 13:42:04;;;;;;;0.40;0.40;;;;;;;;;;5125591;27;20209;-64
2022/09/27 13:44:39;;;;;;;0.50;0.38;;;;;;;;;;5133673;27;20231;-64
2022/09/27 13:47:16;;;;;;;0.45;0.40;;;;;;;;;;5134535;27;20295;-64
2022/09/27 13:49:45;;;;;;;0.60;0.50;;;;;;;;;;5133589;27;20244;-64
2022/09/27 13:52:19;;;;;;;0.55;0.50;;;;;;;;;;5133313;27;20285;-64
2022/09/27 13:54:52;;;;;;;0.88;0.52;;;;;;;;;;5132206;27;20496;-64
2022/09/27 13:57:38;;;;;;;0.80;0.70;;;;;;;;;;5128118;27;20278;-64
2022/09/27 14:00:11;;;;;;;0.50;0.50;;;;;;;;;;5133178;28;20575;-64
2022/09/27 14:02:40;;;;;;;0.47;0.40;;;;;;;;;;5133074;28;20631;-66
2022/09/27 14:05:11;;;;;;;0.50;0.45;;;;;;;;;;5133190;28;20287;-66
2022/09/27 14:07:42;;;;;;;0.50;0.43;;;;;;;;;;5132665;28;20762;-65
2022/09/27 14:10:14;;;;;;;0.77;0.60;;;;;;;;;;5133656;28;20206;-65
2022/09/27 14:12:42;;;;;;;0.60;0.50;;;;;;;;;;5133329;28;20205;-65
2022/09/27 14:15:18;;;;;;;0.50;0.43;;;;;;;;;;5134853;27;20231;-65
2022/09/27 14:17:45;;;;;;;0.55;0.47;;;;;;;;;;5135882;27;20809;-66
2022/09/27 14:20:31;;;;;;;0.57;0.50;;;;;;;;;;5136238;27;20681;-66
2022/09/27 14:22:59;;;;;;;0.55;0.50;;;;;;;;;;5137872;27;20202;-65
2022/09/27 14:25:26;;;;;;;0.65;0.40;;;;;;;;;;5137279;27;20229;-64
2022/09/27 14:27:54;;;;;;;0.55;0.50;;;;;;;;;;5136399;27;20266;-64
2022/09/27 14:30:24;;;;;;;0.55;0.50;;;;;;;;;;5137537;27;20674;-65
2022/09/27 14:32:54;;;;;;;0.40;0.40;;;;;;;;;;5137456;27;20293;-64
2022/09/27 14:38:08;;;;;;;0.50;0.50;;;;;;;;;;5136662;27;20194;-64
2022/09/27 14:40:39;;;;;;;0.50;0.50;;;;;;;;;;5137061;27;20327;-65
2022/09/27 14:43:06;;;;;;;0.50;0.50;;;;;;;;;;5132105;27;20227;-65
2022/09/27 14:45:37;;;;;;;1.08;0.68;;;;;;;;;;5127815;27;20230;-64
2022/09/27 14:48:19;;;;;;;0.47;0.47;;;;;;;;;;5137602;27;20258;-65
2022/09/27 14:50:55;;;;;;;0.43;0.40;;;;;;;;;;5138082;27;20194;-65
2022/09/27 14:53:24;;;;;;;0.47;0.47;;;;;;;;;;5137157;27;20209;-65
2022/09/27 14:55:53;;;;;;;0.73;0.43;;;;;;;;;;5136295;27;20253;-65
2022/09/27 14:58:21;;;;;;;0.77;0.50;;;;;;;;;;5124338;27;20282;-65
2022/09/27 15:00:51;;;;;;;0.50;0.50;;;;;;;;;;5116430;28;20761;-64
2022/09/27 15:03:23;;;;;;;0.50;0.50;;;;;;;;;;5116055;28;20285;-64
2022/09/27 15:05:51;;;;;;;0.90;0.60;;;;;;;;;;5117409;28;20199;-64
2022/09/27 15:08:19;;;;;;;0.60;0.60;;;;;;;;;;5117084;28;20590;-64
2022/09/27 15:10:46;;;;;;;0.60;0.60;;;;;;;;;;5122585;27;20195;-64
2022/09/27 15:13:16;;;;;;;1.17;0.80;;;;;;;;;;5137395;27;20198;-64